General Aviation Weather

Text Reports

Enter one or more of the following location identifiers separated by a space:

Zip Code, Four-Character ICAO or Three-Character IATA airport codes.

METAR - Aviation Routine Weather Report
OKBK - Kuwait,
Updated at 6:00 PM GMT on July 30, 2015 (9:00 PM AST):
METAR OKBK 301800Z 18007KT CAVOK 38/17 Q0997 NOSIG
TAF - Terminal Area Forecast
OKBK - Kuwait,
Updated at 6:00 PM GMT on July 30, 2015 (9:00 PM AST):
TAF OKBK 301645Z 3018/3124 14010KT 7000 NSC=

Decoded:
ID: OKBK   Kuwait Intl (MI, KW
REPORT TIME: 30 16:45
VALID TIME: 30 July AT 18:00Z to 31 July AT 24:00Z.
INITIAL WX
   WINDS: 140 AT 10
   VISIBILITY: 4.3 MILES
   WEATHER: NSC
   COMMENTS: = 

CORRECTION
INITIAL WX
   WEATHER: TAF_FKKD
   COMMENTS: 301700Z 3018/3124 24006KT 9999 FEW006 BKN010 FEW013CB 
TEMPORARY WX FROM 18Z TO 10Z
   VISIBILITY: 1.9 MILES
   WEATHER: RADZ
   CLOUDS: 3 SCT
   CLOUDS: 9 BKN
   CLOUDS: 13 FEW WITH CB
   COMMENTS: = 

PIREP - Pilot Weather Report
OKBK - Kuwait,
Updated at 6:00 PM GMT on July 30, 2015 (9:00 PM AST):
No PIREP is currently available for this location.
AIRMET - Airmens Meteorological Information
OKBK - Kuwait,
Updated at 6:00 PM GMT on July 30, 2015 (9:00 PM AST):
No AIRMET is currently available for this location.
SIGMET - Significant Meteorological Information
OKBK - Kuwait,
Updated at 6:00 PM GMT on July 30, 2015 (9:00 PM AST):
No SIGMET is currently available for this location.
NOTAM - Notice to Airmen
OKBK - Kuwait,
Updated at 6:00 PM GMT on July 30, 2015 (9:00 PM AST):
No NOTAM is currently available for this location.
Forecast Area
OKBK - Kuwait,
Updated at 6:00 PM GMT on July 30, 2015 (9:00 PM AST):
No NOTAM is currently available for this location.
Aviation Weather Maps